sensor_id;sensor_type;location;lat;lon;timestamp;temperature;humidity
7694;DHT22;3889;48.162;11.510;2023-03-01T00:01:44;1.60;99.90
7694;DHT22;3889;48.162;11.510;2023-03-01T00:04:12;1.50;99.90
7694;DHT22;3889;48.162;11.510;2023-03-01T00:06:42;1.50;99.90
7694;DHT22;3889;48.162;11.510;2023-03-01T00:09:12;1.50;99.90
7694;DHT22;3889;48.162;11.510;2023-03-01T00:11:40;1.50;99.90
7694;DHT22;3889;48.162;11.510;2023-03-01T00:14:08;1.40;99.90
7694;DHT22;3889;48.162;11.510;2023-03-01T00:16:39;1.50;99.90
7694;DHT22;3889;48.162;11.510;2023-03-01T00:19:11;1.50;99.90
7694;DHT22;3889;48.162;11.510;2023-03-01T00:21:40;1.50;99.90
7694;DHT22;3889;48.162;11.510;2023-03-01T00:24:08;1.50;99.90
7694;DHT22;3889;48.162;11.510;2023-03-01T00:26:37;1.50;99.90
7694;DHT22;3889;48.162;11.510;2023-03-01T00:29:05;1.60;99.90
7694;DHT22;3889;48.162;11.510;2023-03-01T00:31:33;1.60;99.90
7694;DHT22;3889;48.162;11.510;2023-03-01T00:34:04;1.60;99.90
7694;DHT22;3889;48.162;11.510;2023-03-01T00:36:33;1.60;99.90
7694;DHT22;3889;48.162;11.510;2023-03-01T00:39:03;1.60;99.90
7694;DHT22;3889;48.162;11.510;2023-03-01T00:41:31;1.60;99.90
7694;DHT22;3889;48.162;11.510;2023-03-01T00:44:01;1.60;99.90
7694;DHT22;3889;48.162;11.510;2023-03-01T00:46:28;1.50;99.90
7694;DHT22;3889;48.162;11.510;2023-03-01T00:48:58;1.50;99.90
7694;DHT22;3889;48.162;11.510;2023-03-01T00:51:30;1.60;99.90
7694;DHT22;3889;48.162;11.510;2023-03-01T00:54:00;1.60;99.90
7694;DHT22;3889;48.162;11.510;2023-03-01T00:56:29;1.50;99.90
7694;DHT22;3889;48.162;11.510;2023-03-01T00:58:58;1.60;99.90
7694;DHT22;3889;48.162;11.510;2023-03-01T01:01:27;1.50;99.90
7694;DHT22;3889;48.162;11.510;2023-03-01T01:03:58;1.50;99.90
7694;DHT22;3889;48.162;11.510;2023-03-01T01:06:28;1.50;99.90
7694;DHT22;3889;48.162;11.510;2023-03-01T01:08:58;1.40;99.90
7694;DHT22;3889;48.162;11.510;2023-03-01T01:11:28;1.40;99.90
7694;DHT22;3889;48.162;11.510;2023-03-01T01:13:57;1.40;99.90
7694;DHT22;3889;48.162;11.510;2023-03-01T01:16:27;1.50;99.90
7694;DHT22;3889;48.162;11.510;2023-03-01T01:18:56;1.40;99.90
7694;DHT22;3889;48.162;11.510;2023-03-01T01:21:24;1.50;99.90
7694;DHT22;3889;48.162;11.510;2023-03-01T01:23:53;1.40;99.90
7694;DHT22;3889;48.162;11.510;2023-03-01T01:26:24;1.40;99.90
7694;DHT22;3889;48.162;11.510;2023-03-01T01:28:53;1.40;99.90
7694;DHT22;3889;48.162;11.510;2023-03-01T01:31:22;1.40;99.90
7694;DHT22;3889;48.162;11.510;2023-03-01T01:33:50;1.40;99.90
7694;DHT22;3889;48.162;11.510;2023-03-01T01:36:19;1.30;99.90
7694;DHT22;3889;48.162;11.510;2023-03-01T01:38:47;1.30;99.90
7694;DHT22;3889;48.162;11.510;2023-03-01T01:41:15;1.30;99.90
7694;DHT22;3889;48.162;11.510;2023-03-01T01:43:46;1.30;99.90
7694;DHT22;3889;48.162;11.510;2023-03-01T01:46:20;1.30;99.90
7694;DHT22;3889;48.162;11.510;2023-03-01T01:48:54;1.30;99.90
7694;DHT22;3889;48.162;11.510;2023-03-01T01:51:28;1.40;99.90
7694;DHT22;3889;48.162;11.510;2023-03-01T01:54:10;1.40;99.90
7694;DHT22;3889;48.162;11.510;2023-03-01T01:56:39;1.40;99.90
7694;DHT22;3889;48.162;11.510;2023-03-01T01:59:09;1.30;99.90
7694;DHT22;3889;48.162;11.510;2023-03-01T02:01:37;1.30;99.90
7694;DHT22;3889;48.162;11.510;2023-03-01T02:04:05;1.30;99.90
7694;DHT22;3889;48.162;11.510;2023-03-01T02:06:36;1.30;99.90
7694;DHT22;3889;48.162;11.510;2023-03-01T02:09:09;1.30;99.90
7694;DHT22;3889;48.162;11.510;2023-03-01T02:11:38;1.40;99.90
7694;DHT22;3889;48.162;11.510;2023-03-01T02:14:06;1.30;99.90
7694;DHT22;3889;48.162;11.510;2023-03-01T02:16:36;1.30;99.90
7694;DHT22;3889;48.162;11.510;2023-03-01T02:19:05;1.30;99.90
7694;DHT22;3889;48.162;11.510;2023-03-01T02:21:38;1.30;99.90
7694;DHT22;3889;48.162;11.510;2023-03-01T02:24:16;1.20;99.90
7694;DHT22;3889;48.162;11.510;2023-03-01T02:26:50;1.30;99.90
7694;DHT22;3889;48.162;11.510;2023-03-01T02:29:20;1.30;99.90
7694;DHT22;3889;48.162;11.510;2023-03-01T02:31:49;1.30;99.90
7694;DHT22;3889;48.162;11.510;2023-03-01T02:34:21;1.30;99.90
7694;DHT22;3889;48.162;11.510;2023-03-01T02:36:55;1.30;99.90
7694;DHT22;3889;48.162;11.510;2023-03-01T02:39:26;1.30;99.90
7694;DHT22;3889;48.162;11.510;2023-03-01T02:41:56;1.30;99.90
7694;DHT22;3889;48.162;11.510;2023-03-01T02:44:26;1.30;99.90
7694;DHT22;3889;48.162;11.510;2023-03-01T02:46:56;1.30;99.90
7694;DHT22;3889;48.162;11.510;2023-03-01T02:49:27;1.20;99.90
7694;DHT22;3889;48.162;11.510;2023-03-01T02:52:07;1.20;99.90
7694;DHT22;3889;48.162;11.510;2023-03-01T02:54:41;1.20;99.90
7694;DHT22;3889;48.162;11.510;2023-03-01T02:57:11;1.10;99.90
7694;DHT22;3889;48.162;11.510;2023-03-01T02:59:42;1.10;99.90
7694;DHT22;3889;48.162;11.510;2023-03-01T03:02:19;1.10;99.90
7694;DHT22;3889;48.162;11.510;2023-03-01T03:05:08;1.10;99.90
7694;DHT22;3889;48.162;11.510;2023-03-01T03:07:39;1.10;99.90
7694;DHT22;3889;48.162;11.510;2023-03-01T03:10:09;1.10;99.90
7694;DHT22;3889;48.162;11.510;2023-03-01T03:12:37;1.10;99.90
7694;DHT22;3889;48.162;11.510;2023-03-01T03:15:09;1.10;99.90
7694;DHT22;3889;48.162;11.510;2023-03-01T03:17:41;1.20;99.90
7694;DHT22;3889;48.162;11.510;2023-03-01T03:20:14;1.10;99.90
7694;DHT22;3889;48.162;11.510;2023-03-01T03:22:46;1.00;99.90
7694;DHT22;3889;48.162;11.510;2023-03-01T03:25:14;1.00;99.90
7694;DHT22;3889;48.162;11.510;2023-03-01T03:27:43;0.90;99.90
7694;DHT22;3889;48.162;11.510;2023-03-01T03:30:15;0.90;99.90
7694;DHT22;3889;48.162;11.510;2023-03-01T03:32:45;1.00;99.90
7694;DHT22;3889;48.162;11.510;2023-03-01T03:35:20;1.00;99.90
7694;DHT22;3889;48.162;11.510;2023-03-01T03:37:48;1.00;99.90
7694;DHT22;3889;48.162;11.510;2023-03-01T03:40:34;1.00;99.90
7694;DHT22;3889;48.162;11.510;2023-03-01T03:43:04;1.00;99.90
7694;DHT22;3889;48.162;11.510;2023-03-01T03:45:34;1.00;99.90
7694;DHT22;3889;48.162;11.510;2023-03-01T03:48:04;0.90;99.90
7694;DHT22;3889;48.162;11.510;2023-03-01T03:50:32;0.90;99.90
7694;DHT22;3889;48.162;11.510;2023-03-01T03:53:01;0.90;99.90
7694;DHT22;3889;48.162;11.510;2023-03-01T03:55:30;0.90;99.90
7694;DHT22;3889;48.162;11.510;2023-03-01T03:58:02;0.80;99.90
7694;DHT22;3889;48.162;11.510;2023-03-01T04:00:36;0.90;99.90
7694;DHT22;3889;48.162;11.510;2023-03-01T04:03:04;0.90;99.90
7694;DHT22;3889;48.162;11.510;2023-03-01T04:05:33;0.90;99.90
7694;DHT22;3889;48.162;11.510;2023-03-01T04:08:01;0.80;99.90
7694;DHT22;3889;48.162;11.510;2023-03-01T04:10:30;0.80;99.90
7694;DHT22;3889;48.162;11.510;2023-03-01T04:12:59;0.70;99.90
7694;DHT22;3889;48.162;11.510;2023-03-01T04:15:27;0.80;99.90
7694;DHT22;3889;48.162;11.510;2023-03-01T04:17:56;0.80;99.90
7694;DHT22;3889;48.162;11.510;2023-03-01T04:20:26;0.80;99.90
7694;DHT22;3889;48.162;11.510;2023-03-01T04:22:58;0.80;99.90
7694;DHT22;3889;48.162;11.510;2023-03-01T04:25:26;0.80;99.90
7694;DHT22;3889;48.162;11.510;2023-03-01T04:27:54;0.80;99.90
7694;DHT22;3889;48.162;11.510;2023-03-01T04:30:22;0.80;99.90
7694;DHT22;3889;48.162;11.510;2023-03-01T04:32:51;0.80;99.90
7694;DHT22;3889;48.162;11.510;2023-03-01T04:35:21;0.90;99.90
7694;DHT22;3889;48.162;11.510;2023-03-01T04:37:49;0.90;99.90
7694;DHT22;3889;48.162;11.510;2023-03-01T04:40:17;0.90;99.90
7694;DHT22;3889;48.162;11.510;2023-03-01T04:42:45;0.90;99.90
7694;DHT22;3889;48.162;11.510;2023-03-01T04:45:13;0.90;99.90
7694;DHT22;3889;48.162;11.510;2023-03-01T04:47:43;0.80;99.90
7694;DHT22;3889;48.162;11.510;2023-03-01T04:50:14;0.70;99.90
7694;DHT22;3889;48.162;11.510;2023-03-01T04:52:44;0.70;99.90
7694;DHT22;3889;48.162;11.510;2023-03-01T04:55:13;0.60;99.90
7694;DHT22;3889;48.162;11.510;2023-03-01T04:57:40;0.60;99.90
7694;DHT22;3889;48.162;11.510;2023-03-01T05:00:11;0.60;99.90
7694;DHT22;3889;48.162;11.510;2023-03-01T05:02:49;0.40;99.90
7694;DHT22;3889;48.162;11.510;2023-03-01T05:05:21;0.60;99.90
7694;DHT22;3889;48.162;11.510;2023-03-01T05:07:54;0.50;99.90
7694;DHT22;3889;48.162;11.510;2023-03-01T05:10:23;0.30;99.90
7694;DHT22;3889;48.162;11.510;2023-03-01T05:12:52;0.30;99.90
7694;DHT22;3889;48.162;11.510;2023-03-01T05:15:20;0.30;99.90
7694;DHT22;3889;48.162;11.510;2023-03-01T05:17:52;0.30;99.90
7694;DHT22;3889;48.162;11.510;2023-03-01T05:20:21;0.30;99.90
7694;DHT22;3889;48.162;11.510;2023-03-01T05:22:50;0.20;99.90
7694;DHT22;3889;48.162;11.510;2023-03-01T05:25:20;0.20;99.90
7694;DHT22;3889;48.162;11.510;2023-03-01T05:27:48;0.20;99.90
7694;DHT22;3889;48.162;11.510;2023-03-01T05:30:17;0.20;99.90
7694;DHT22;3889;48.162;11.510;2023-03-01T05:32:47;0.10;99.90
7694;DHT22;3889;48.162;11.510;2023-03-01T05:35:16;0.10;99.90
7694;DHT22;3889;48.162;11.510;2023-03-01T05:37:46;0.00;99.90
7694;DHT22;3889;48.162;11.510;2023-03-01T05:40:17;0.10;99.90
7694;DHT22;3889;48.162;11.510;2023-03-01T05:42:48;0.00;99.90
7694;DHT22;3889;48.162;11.510;2023-03-01T05:45:17;0.00;99.90
7694;DHT22;3889;48.162;11.510;2023-03-01T05:47:46;0.00;99.90
7694;DHT22;3889;48.162;11.510;2023-03-01T05:50:17;0.00;99.90
7694;DHT22;3889;48.162;11.510;2023-03-01T05:52:47;0.10;99.90
7694;DHT22;3889;48.162;11.510;2023-03-01T05:55:16;0.10;99.90
7694;DHT22;3889;48.162;11.510;2023-03-01T05:57:46;0.00;99.90
7694;DHT22;3889;48.162;11.510;2023-03-01T06:00:16;0.10;99.90
7694;DHT22;3889;48.162;11.510;2023-03-01T06:02:44;0.00;99.90
7694;DHT22;3889;48.162;11.510;2023-03-01T06:05:13;0.00;99.90
7694;DHT22;3889;48.162;11.510;2023-03-01T06:07:41;0.00;99.90
7694;DHT22;3889;48.162;11.510;2023-03-01T06:10:10;-0.10;99.90
7694;DHT22;3889;48.162;11.510;2023-03-01T06:12:40;-0.10;99.90
7694;DHT22;3889;48.162;11.510;2023-03-01T06:15:11;0.00;99.90
7694;DHT22;3889;48.162;11.510;2023-03-01T06:17:42;0.00;99.90
7694;DHT22;3889;48.162;11.510;2023-03-01T06:20:12;0.10;99.90
7694;DHT22;3889;48.162;11.510;2023-03-01T06:22:41;0.00;99.90
7694;DHT22;3889;48.162;11.510;2023-03-01T06:25:09;-0.10;99.90
7694;DHT22;3889;48.162;11.510;2023-03-01T06:27:39;0.00;99.90
7694;DHT22;3889;48.162;11.510;2023-03-01T06:30:10;0.10;99.90
7694;DHT22;3889;48.162;11.510;2023-03-01T06:32:39;0.00;99.90
7694;DHT22;3889;48.162;11.510;2023-03-01T06:35:09;0.00;99.90
7694;DHT22;3889;48.162;11.510;2023-03-01T06:37:38;0.10;99.90
7694;DHT22;3889;48.162;11.510;2023-03-01T06:40:07;0.10;99.90
7694;DHT22;3889;48.162;11.510;2023-03-01T06:42:38;0.00;99.90
7694;DHT22;3889;48.162;11.510;2023-03-01T06:45:08;0.10;99.90
7694;DHT22;3889;48.162;11.510;2023-03-01T06:47:37;0.20;99.90
7694;DHT22;3889;48.162;11.510;2023-03-01T06:50:06;0.20;99.90
7694;DHT22;3889;48.162;11.510;2023-03-01T06:52:34;0.20;99.90
7694;DHT22;3889;48.162;11.510;2023-03-01T06:55:02;0.10;99.90
7694;DHT22;3889;48.162;11.510;2023-03-01T06:57:30;0.10;99.90
7694;DHT22;3889;48.162;11.510;2023-03-01T06:59:58;0.20;99.90
7694;DHT22;3889;48.162;11.510;2023-03-01T07:02:26;0.20;99.90
7694;DHT22;3889;48.162;11.510;2023-03-01T07:04:55;0.20;99.90
7694;DHT22;3889;48.162;11.510;2023-03-01T07:07:23;0.20;99.90
7694;DHT22;3889;48.162;11.510;2023-03-01T07:09:51;0.20;99.90
7694;DHT22;3889;48.162;11.510;2023-03-01T07:12:19;0.30;99.90
7694;DHT22;3889;48.162;11.510;2023-03-01T07:14:47;0.40;99.90
7694;DHT22;3889;48.162;11.510;2023-03-01T07:17:15;0.40;99.90
7694;DHT22;3889;48.162;11.510;2023-03-01T07:19:43;0.30;99.90
7694;DHT22;3889;48.162;11.510;2023-03-01T07:22:13;0.40;99.90
7694;DHT22;3889;48.162;11.510;2023-03-01T07:24:40;0.40;99.90
7694;DHT22;3889;48.162;11.510;2023-03-01T07:27:09;0.30;99.90
7694;DHT22;3889;48.162;11.510;2023-03-01T07:29:37;0.40;99.90
7694;DHT22;3889;48.162;11.510;2023-03-01T07:32:05;0.50;99.90
7694;DHT22;3889;48.162;11.510;2023-03-01T07:34:33;0.60;99.90
7694;DHT22;3889;48.162;11.510;2023-03-01T07:37:01;0.60;99.90
7694;DHT22;3889;48.162;11.510;2023-03-01T07:39:30;0.70;99.90
7694;DHT22;3889;48.162;11.510;2023-03-01T07:41:58;0.60;99.90
7694;DHT22;3889;48.162;11.510;2023-03-01T07:44:26;0.60;99.90
7694;DHT22;3889;48.162;11.510;2023-03-01T07:46:54;0.60;99.90
7694;DHT22;3889;48.162;11.510;2023-03-01T07:49:24;0.70;99.90
7694;DHT22;3889;48.162;11.510;2023-03-01T07:51:53;0.70;99.90
7694;DHT22;3889;48.162;11.510;2023-03-01T07:54:21;0.80;99.90
7694;DHT22;3889;48.162;11.510;2023-03-01T07:56:51;0.80;99.90
7694;DHT22;3889;48.162;11.510;2023-03-01T07:59:18;0.70;99.90
7694;DHT22;3889;48.162;11.510;2023-03-01T08:01:46;0.80;99.90
7694;DHT22;3889;48.162;11.510;2023-03-01T08:04:14;0.80;99.90
7694;DHT22;3889;48.162;11.510;2023-03-01T08:06:42;0.90;99.90
7694;DHT22;3889;48.162;11.510;2023-03-01T08:09:10;0.90;99.90
7694;DHT22;3889;48.162;11.510;2023-03-01T08:11:38;1.00;99.90
7694;DHT22;3889;48.162;11.510;2023-03-01T08:14:07;0.90;99.90
7694;DHT22;3889;48.162;11.510;2023-03-01T08:16:35;0.90;99.90
7694;DHT22;3889;48.162;11.510;2023-03-01T08:19:06;1.00;99.90
7694;DHT22;3889;48.162;11.510;2023-03-01T08:21:34;1.00;99.90
7694;DHT22;3889;48.162;11.510;2023-03-01T08:24:03;1.10;99.90
7694;DHT22;3889;48.162;11.510;2023-03-01T08:26:32;1.10;99.90
7694;DHT22;3889;48.162;11.510;2023-03-01T08:29:01;1.00;99.90
7694;DHT22;3889;48.162;11.510;2023-03-01T08:31:32;1.10;99.90
7694;DHT22;3889;48.162;11.510;2023-03-01T08:34:07;1.10;99.90
7694;DHT22;3889;48.162;11.510;2023-03-01T08:36:37;1.10;99.90
7694;DHT22;3889;48.162;11.510;2023-03-01T08:39:05;1.30;99.90
7694;DHT22;3889;48.162;11.510;2023-03-01T08:41:34;1.40;99.90
7694;DHT22;3889;48.162;11.510;2023-03-01T08:44:02;1.60;99.90
7694;DHT22;3889;48.162;11.510;2023-03-01T08:46:33;1.70;99.90
7694;DHT22;3889;48.162;11.510;2023-03-01T08:49:03;1.90;99.90
7694;DHT22;3889;48.162;11.510;2023-03-01T08:51:32;1.80;99.90
7694;DHT22;3889;48.162;11.510;2023-03-01T08:54:03;1.50;99.90
7694;DHT22;3889;48.162;11.510;2023-03-01T08:56:31;1.70;99.90
7694;DHT22;3889;48.162;11.510;2023-03-01T08:58:59;1.90;99.90
7694;DHT22;3889;48.162;11.510;2023-03-01T09:01:27;1.80;99.90
7694;DHT22;3889;48.162;11.510;2023-03-01T09:03:56;1.80;99.90
7694;DHT22;3889;48.162;11.510;2023-03-01T09:06:24;1.80;99.90
7694;DHT22;3889;48.162;11.510;2023-03-01T09:08:51;1.90;99.90
7694;DHT22;3889;48.162;11.510;2023-03-01T09:11:21;1.60;99.90
7694;DHT22;3889;48.162;11.510;2023-03-01T09:13:49;1.60;99.90
7694;DHT22;3889;48.162;11.510;2023-03-01T09:16:18;1.90;99.90
7694;DHT22;3889;48.162;11.510;2023-03-01T09:18:49;2.20;99.90
7694;DHT22;3889;48.162;11.510;2023-03-01T09:21:20;2.40;99.90
7694;DHT22;3889;48.162;11.510;2023-03-01T09:24:06;2.00;99.90
7694;DHT22;3889;48.162;11.510;2023-03-01T09:26:34;2.20;99.90
7694;DHT22;3889;48.162;11.510;2023-03-01T09:29:01;2.20;99.90
7694;DHT22;3889;48.162;11.510;2023-03-01T09:31:29;2.10;99.90
7694;DHT22;3889;48.162;11.510;2023-03-01T09:33:57;2.10;99.90
7694;DHT22;3889;48.162;11.510;2023-03-01T09:36:26;2.30;99.90
7694;DHT22;3889;48.162;11.510;2023-03-01T09:38:56;2.10;99.90
7694;DHT22;3889;48.162;11.510;2023-03-01T09:41:42;2.00;99.90
7694;DHT22;3889;48.162;11.510;2023-03-01T09:44:18;2.10;99.90
7694;DHT22;3889;48.162;11.510;2023-03-01T09:46:46;2.30;99.90
7694;DHT22;3889;48.162;11.510;2023-03-01T09:49:16;2.30;99.90
7694;DHT22;3889;48.162;11.510;2023-03-01T09:51:55;2.00;99.90
7694;DHT22;3889;48.162;11.510;2023-03-01T09:54:23;2.10;99.90
7694;DHT22;3889;48.162;11.510;2023-03-01T09:57:02;2.10;99.90
7694;DHT22;3889;48.162;11.510;2023-03-01T09:59:41;2.20;99.90
7694;DHT22;3889;48.162;11.510;2023-03-01T10:02:23;2.30;99.90
7694;DHT22;3889;48.162;11.510;2023-03-01T10:04:53;2.50;99.90
7694;DHT22;3889;48.162;11.510;2023-03-01T10:07:30;2.40;99.90
7694;DHT22;3889;48.162;11.510;2023-03-01T10:09:59;2.40;99.90
7694;DHT22;3889;48.162;11.510;2023-03-01T10:12:35;2.60;99.90
7694;DHT22;3889;48.162;11.510;2023-03-01T10:15:07;2.40;99.90
7694;DHT22;3889;48.162;11.510;2023-03-01T10:17:40;2.70;99.90
7694;DHT22;3889;48.162;11.510;2023-03-01T10:20:16;2.60;99.90
7694;DHT22;3889;48.162;11.510;2023-03-01T10:22:46;2.80;99.90
7694;DHT22;3889;48.162;11.510;2023-03-01T10:25:29;2.90;99.90
7694;DHT22;3889;48.162;11.510;2023-03-01T10:28:04;3.00;99.90
7694;DHT22;3889;48.162;11.510;2023-03-01T10:30:36;2.80;99.90
7694;DHT22;3889;48.162;11.510;2023-03-01T10:33:17;2.80;99.90
7694;DHT22;3889;48.162;11.510;2023-03-01T10:35:46;2.90;99.90
7694;DHT22;3889;48.162;11.510;2023-03-01T10:38:16;3.20;99.90
7694;DHT22;3889;48.162;11.510;2023-03-01T10:40:51;3.00;99.90
7694;DHT22;3889;48.162;11.510;2023-03-01T10:43:21;3.00;99.90
7694;DHT22;3889;48.162;11.510;2023-03-01T10:45:49;3.30;99.90
7694;DHT22;3889;48.162;11.510;2023-03-01T10:48:18;3.30;99.90
7694;DHT22;3889;48.162;11.510;2023-03-01T10:50:51;3.00;99.90
7694;DHT22;3889;48.162;11.510;2023-03-01T10:53:28;2.90;99.90
7694;DHT22;3889;48.162;11.510;2023-03-01T10:55:59;3.10;99.90
7694;DHT22;3889;48.162;11.510;2023-03-01T10:58:28;3.40;99.90
7694;DHT22;3889;48.162;11.510;2023-03-01T11:00:58;3.80;99.90
7694;DHT22;3889;48.162;11.510;2023-03-01T11:03:28;4.00;99.90
7694;DHT22;3889;48.162;11.510;2023-03-01T11:06:03;4.10;99.90
7694;DHT22;3889;48.162;11.510;2023-03-01T11:08:36;4.00;99.90
7694;DHT22;3889;48.162;11.510;2023-03-01T11:11:10;4.10;99.90
7694;DHT22;3889;48.162;11.510;2023-03-01T11:13:50;4.10;99.90
7694;DHT22;3889;48.162;11.510;2023-03-01T11:16:27;4.00;99.90
7694;DHT22;3889;48.162;11.510;2023-03-01T11:18:57;4.00;99.90
7694;DHT22;3889;48.162;11.510;2023-03-01T11:21:27;4.00;99.90
7694;DHT22;3889;48.162;11.510;2023-03-01T11:24:00;4.00;99.90
7694;DHT22;3889;48.162;11.510;2023-03-01T11:26:30;3.90;99.90
7694;DHT22;3889;48.162;11.510;2023-03-01T11:29:03;4.00;99.90
7694;DHT22;3889;48.162;11.510;2023-03-01T11:31:32;4.00;99.90
7694;DHT22;3889;48.162;11.510;2023-03-01T11:34:06;4.10;99.90
7694;DHT22;3889;48.162;11.510;2023-03-01T11:36:39;4.10;99.90
7694;DHT22;3889;48.162;11.510;2023-03-01T11:39:22;4.20;99.90
7694;DHT22;3889;48.162;11.510;2023-03-01T11:42:06;4.10;99.90
7694;DHT22;3889;48.162;11.510;2023-03-01T11:44:47;4.20;99.90
7694;DHT22;3889;48.162;11.510;2023-03-01T11:47:25;4.10;99.90
7694;DHT22;3889;48.162;11.510;2023-03-01T11:50:20;4.10;99.90
7694;DHT22;3889;48.162;11.510;2023-03-01T11:55:56;4.10;99.90
7694;DHT22;3889;48.162;11.510;2023-03-01T11:59:00;4.40;99.90
7694;DHT22;3889;48.162;11.510;2023-03-01T12:01:43;4.40;99.90
7694;DHT22;3889;48.162;11.510;2023-03-01T12:04:31;4.60;99.90
7694;DHT22;3889;48.162;11.510;2023-03-01T12:07:07;4.70;99.90
7694;DHT22;3889;48.162;11.510;2023-03-01T12:09:53;4.90;99.90
7694;DHT22;3889;48.162;11.510;2023-03-01T12:12:34;4.90;99.90
7694;DHT22;3889;48.162;11.510;2023-03-01T12:18:08;4.80;99.90
7694;DHT22;3889;48.162;11.510;2023-03-01T12:20:45;4.80;99.90
7694;DHT22;3889;48.162;11.510;2023-03-01T12:23:32;4.80;99.90
7694;DHT22;3889;48.162;11.510;2023-03-01T12:26:11;4.90;99.90
7694;DHT22;3889;48.162;11.510;2023-03-01T12:28:51;4.90;99.90
7694;DHT22;3889;48.162;11.510;2023-03-01T12:31:39;4.70;99.90
7694;DHT22;3889;48.162;11.510;2023-03-01T12:34:24;4.80;99.90
7694;DHT22;3889;48.162;11.510;2023-03-01T12:37:17;4.80;99.90
7694;DHT22;3889;48.162;11.510;2023-03-01T12:39:56;4.90;99.90
7694;DHT22;3889;48.162;11.510;2023-03-01T12:42:30;5.00;99.90
7694;DHT22;3889;48.162;11.510;2023-03-01T12:45:18;5.10;99.90
7694;DHT22;3889;48.162;11.510;2023-03-01T12:48:02;5.20;99.90
7694;DHT22;3889;48.162;11.510;2023-03-01T12:50:39;5.30;99.90
7694;DHT22;3889;48.162;11.510;2023-03-01T12:53:20;5.40;99.90
7694;DHT22;3889;48.162;11.510;2023-03-01T12:55:50;5.50;99.90
7694;DHT22;3889;48.162;11.510;2023-03-01T12:58:25;5.50;99.90
7694;DHT22;3889;48.162;11.510;2023-03-01T13:01:17;5.60;99.90
7694;DHT22;3889;48.162;11.510;2023-03-01T13:04:06;5.60;99.90
7694;DHT22;3889;48.162;11.510;2023-03-01T13:06:41;5.90;99.90
7694;DHT22;3889;48.162;11.510;2023-03-01T13:09:20;6.10;99.90
7694;DHT22;3889;48.162;11.510;2023-03-01T13:11:52;6.00;99.90
7694;DHT22;3889;48.162;11.510;2023-03-01T13:14:36;5.90;99.90
7694;DHT22;3889;48.162;11.510;2023-03-01T13:17:29;5.90;99.90
7694;DHT22;3889;48.162;11.510;2023-03-01T13:19:58;5.80;99.90
7694;DHT22;3889;48.162;11.510;2023-03-01T13:22:29;5.50;99.90
7694;DHT22;3889;48.162;11.510;2023-03-01T13:25:11;5.60;99.90
7694;DHT22;3889;48.162;11.510;2023-03-01T13:27:40;5.60;99.90
7694;DHT22;3889;48.162;11.510;2023-03-01T13:30:41;5.60;99.90
7694;DHT22;3889;48.162;11.510;2023-03-01T13:33:43;5.70;99.90
7694;DHT22;3889;48.162;11.510;2023-03-01T13:36:45;5.80;99.90
7694;DHT22;3889;48.162;11.510;2023-03-01T13:39:28;5.80;99.90
7694;DHT22;3889;48.162;11.510;2023-03-01T13:41:59;5.80;99.90
7694;DHT22;3889;48.162;11.510;2023-03-01T13:44:31;6.00;99.90
7694;DHT22;3889;48.162;11.510;2023-03-01T13:47:06;5.90;99.90
7694;DHT22;3889;48.162;11.510;2023-03-01T13:49:45;5.90;99.90
7694;DHT22;3889;48.162;11.510;2023-03-01T13:52:36;6.00;99.90
7694;DHT22;3889;48.162;11.510;2023-03-01T13:55:16;6.20;99.90
7694;DHT22;3889;48.162;11.510;2023-03-01T13:57:47;6.10;99.90
7694;DHT22;3889;48.162;11.510;2023-03-01T14:00:28;6.10;99.90
7694;DHT22;3889;48.162;11.510;2023-03-01T14:03:04;5.90;99.90
7694;DHT22;3889;48.162;11.510;2023-03-01T14:05:35;5.90;99.90
7694;DHT22;3889;48.162;11.510;2023-03-01T14:08:03;5.90;99.90
7694;DHT22;3889;48.162;11.510;2023-03-01T14:10:36;5.90;99.90
7694;DHT22;3889;48.162;11.510;2023-03-01T14:13:22;5.80;99.90
7694;DHT22;3889;48.162;11.510;2023-03-01T14:16:05;5.90;99.90
7694;DHT22;3889;48.162;11.510;2023-03-01T14:18:47;5.90;99.90
7694;DHT22;3889;48.162;11.510;2023-03-01T14:21:19;5.90;99.90
7694;DHT22;3889;48.162;11.510;2023-03-01T14:23:49;6.00;99.90
7694;DHT22;3889;48.162;11.510;2023-03-01T14:26:21;6.00;99.90
7694;DHT22;3889;48.162;11.510;2023-03-01T14:28:50;6.10;99.90
7694;DHT22;3889;48.162;11.510;2023-03-01T14:31:37;6.10;99.90
7694;DHT22;3889;48.162;11.510;2023-03-01T14:34:24;6.20;99.90
7694;DHT22;3889;48.162;11.510;2023-03-01T14:36:53;6.20;99.90
7694;DHT22;3889;48.162;11.510;2023-03-01T14:39:25;6.20;99.90
7694;DHT22;3889;48.162;11.510;2023-03-01T14:41:53;6.10;99.90
7694;DHT22;3889;48.162;11.510;2023-03-01T14:44:23;6.00;99.90
7694;DHT22;3889;48.162;11.510;2023-03-01T14:46:54;6.00;99.90
7694;DHT22;3889;48.162;11.510;2023-03-01T14:49:26;6.00;99.90
7694;DHT22;3889;48.162;11.510;2023-03-01T14:52:02;6.00;99.90
7694;DHT22;3889;48.162;11.510;2023-03-01T14:54:36;6.00;99.90
7694;DHT22;3889;48.162;11.510;2023-03-01T14:57:05;6.10;99.90
7694;DHT22;3889;48.162;11.510;2023-03-01T14:59:33;6.00;99.90
7694;DHT22;3889;48.162;11.510;2023-03-01T15:02:02;6.00;99.90
7694;DHT22;3889;48.162;11.510;2023-03-01T15:04:30;6.10;99.90
7694;DHT22;3889;48.162;11.510;2023-03-01T15:07:02;6.10;99.90
7694;DHT22;3889;48.162;11.510;2023-03-01T15:09:33;6.10;99.90
7694;DHT22;3889;48.162;11.510;2023-03-01T15:12:36;6.10;99.90
7694;DHT22;3889;48.162;11.510;2023-03-01T15:15:35;6.20;99.90
7694;DHT22;3889;48.162;11.510;2023-03-01T15:18:12;6.50;99.90
7694;DHT22;3889;48.162;11.510;2023-03-01T15:20:41;7.60;99.90
7694;DHT22;3889;48.162;11.510;2023-03-01T15:23:19;8.30;99.90
7694;DHT22;3889;48.162;11.510;2023-03-01T15:25:49;8.20;99.90
7694;DHT22;3889;48.162;11.510;2023-03-01T15:28:24;7.90;99.90
7694;DHT22;3889;48.162;11.510;2023-03-01T15:30:55;7.80;99.90
7694;DHT22;3889;48.162;11.510;2023-03-01T15:33:35;7.80;99.90
7694;DHT22;3889;48.162;11.510;2023-03-01T15:36:32;7.80;99.90
7694;DHT22;3889;48.162;11.510;2023-03-01T15:39:02;8.30;99.90
7694;DHT22;3889;48.162;11.510;2023-03-01T15:41:32;9.00;99.90
7694;DHT22;3889;48.162;11.510;2023-03-01T15:44:13;9.70;99.90
7694;DHT22;3889;48.162;11.510;2023-03-01T15:46:46;10.10;99.90
7694;DHT22;3889;48.162;11.510;2023-03-01T15:49:35;10.00;99.90
7694;DHT22;3889;48.162;11.510;2023-03-01T15:52:22;9.30;99.90
7694;DHT22;3889;48.162;11.510;2023-03-01T15:54:58;9.20;99.90
7694;DHT22;3889;48.162;11.510;2023-03-01T15:57:27;8.90;99.90
7694;DHT22;3889;48.162;11.510;2023-03-01T15:59:55;8.20;99.90
7694;DHT22;3889;48.162;11.510;2023-03-01T16:02:23;7.70;99.90
7694;DHT22;3889;48.162;11.510;2023-03-01T16:04:51;7.40;99.90
7694;DHT22;3889;48.162;11.510;2023-03-01T16:07:20;7.00;99.90
7694;DHT22;3889;48.162;11.510;2023-03-01T16:09:48;6.80;99.90
7694;DHT22;3889;48.162;11.510;2023-03-01T16:12:17;6.70;99.90
7694;DHT22;3889;48.162;11.510;2023-03-01T16:14:47;6.50;99.90
7694;DHT22;3889;48.162;11.510;2023-03-01T16:17:15;6.30;99.90
7694;DHT22;3889;48.162;11.510;2023-03-01T16:19:43;6.20;99.90
7694;DHT22;3889;48.162;11.510;2023-03-01T16:22:11;6.10;99.90
7694;DHT22;3889;48.162;11.510;2023-03-01T16:24:39;6.00;99.90
7694;DHT22;3889;48.162;11.510;2023-03-01T16:27:08;6.00;99.90
7694;DHT22;3889;48.162;11.510;2023-03-01T16:29:37;5.90;99.90
7694;DHT22;3889;48.162;11.510;2023-03-01T16:32:05;5.90;99.90
7694;DHT22;3889;48.162;11.510;2023-03-01T16:34:33;5.80;99.90
7694;DHT22;3889;48.162;11.510;2023-03-01T16:37:01;5.80;99.90
7694;DHT22;3889;48.162;11.510;2023-03-01T16:39:29;5.70;99.90
7694;DHT22;3889;48.162;11.510;2023-03-01T16:41:59;5.70;99.90